Date,TemperatureHighF,TemperatureAvgF,TemperatureLowF,DewpointHighF,DewpointAvgF,DewpointLowF,HumidityHigh,HumidityAvg,HumidityLow,PressureMaxIn,PressureMinIn,WindSpeedMaxMPH,WindSpeedAvgMPH,GustSpeedMaxMPH,PrecipitationSumIn
2013-1-1,41.0,38.4,33.0,29.0,27.2,22.0,70,64,59,30.00,29.89,8,3,13,0.00
2013-1-2,33.0,29.2,25.0,23.0,15.4,11.0,66,56,45,30.20,29.98,10,3,13,0.00
2013-1-3,37.0,28.5,18.0,21.0,15.4,10.0,72,58,46,30.21,30.09,12,2,19,0.00
2013-1-4,39.0,35.0,32.0,22.0,20.3,19.0,60,55,48,30.17,30.06,14,8,23,0.00
2013-1-5,43.0,35.5,31.0,24.0,20.9,18.0,70,55,44,30.34,30.11,13,3,20,0.00
2013-1-6,46.0,38.4,31.0,29.0,26.1,22.0,73,62,50,30.15,29.99,5,1,10,0.00
2013-1-7,42.0,37.6,28.0,29.0,25.1,20.0,71,61,53,30.41,30.11,9,3,15,0.00
2013-1-8,48.0,33.5,23.0,32.0,24.3,17.0,78,69,52,30.38,30.30,3,0,6,0.00
2013-1-9,49.0,36.3,26.0,39.0,28.0,20.0,80,72,52,30.35,30.18,6,1,10,0.00
2013-1-10,49.0,43.0,36.0,31.0,27.8,25.0,67,55,45,30.58,30.35,8,2,14,0.00
2013-1-11,45.0,40.4,35.0,39.0,31.9,27.0,86,72,60,30.45,30.08,6,1,14,0.23
2013-1-12,57.0,44.9,39.0,46.0,39.3,34.0,85,81,67,30.15,30.06,3,0,5,0.01
2013-1-13,55.0,47.4,41.0,50.0,42.7,36.0,85,84,80,30.07,29.92,4,1,7,0.01
2013-1-14,54.0,48.4,39.0,50.0,38.8,30.0,85,70,53,30.30,29.91,12,4,16,0.22
2013-1-15,40.0,38.0,34.0,34.0,30.7,27.0,82,75,64,30.33,30.14,6,2,10,0.56
2013-1-16,43.0,36.0,33.0,35.0,30.9,28.0,88,83,74,30.14,29.85,6,1,11,0.89
2013-1-17,43.0,39.2,35.0,34.0,28.0,25.0,74,64,51,30.12,29.95,10,2,16,0.03
2013-1-18,37.0,32.0,27.0,26.0,15.2,9.0,69,50,37,30.47,30.03,21,6,31,0.01
2013-1-19,58.0,42.0,29.0,28.0,23.3,15.0,66,49,26,30.33,29.88,10,5,18,0.01
2013-1-20,53.0,42.7,30.0,31.0,20.2,12.0,54,42,22,30.06,29.78,16,6,25,0.00
2013-1-21,40.0,30.7,25.0,20.0,15.0,6.0,65,52,39,30.08,29.80,15,4,27,0.00
2013-1-22,24.0,17.4,13.0,7.0,-2.4,-6.0,52,41,31,30.24,29.94,15,8,28,0.00
2013-1-23,24.0,17.1,9.0,4.0,-1.4,-3.0,60,44,31,30.29,30.09,9,3,17,0.00
2013-1-24,26.0,19.5,14.0,10.0,5.2,-1.0,75,55,38,30.47,30.06,17,5,24,0.00
2013-1-25,21.0,17.8,14.0,13.0,6.6,-1.0,76,62,43,30.47,30.02,4,1,11,0.00
2013-1-26,30.0,23.8,18.0,21.0,16.6,12.0,78,74,67,30.39,30.03,2,0,4,0.07
2013-1-27,35.0,28.6,19.0,20.0,16.0,11.0,72,60,45,30.55,30.39,4,1,7,0.01
2013-1-28,40.0,34.5,29.0,35.0,28.5,20.0,83,78,63,30.42,30.01,5,1,9,0.21
2013-1-29,67.0,53.6,40.0,54.0,45.2,35.0,86,74,61,30.09,29.92,4,1,9,0.01
2013-1-30,69.0,50.0,37.0,61.0,44.9,32.0,88,83,71,29.92,29.22,14,3,25,1.27
2013-1-31,56.0,35.2,27.0,52.0,19.1,10.0,85,52,42,29.85,29.19,20,10,34,1.24
2013-2-1,30.0,24.1,18.0,19.0,8.7,3.0,77,52,41,30.32,29.80,18,8,29,0.01
2013-2-2,27.0,21.1,14.0,19.0,9.3,3.0,78,60,46,30.33,29.97,11,2,15,0.00
2013-2-3,34.0,27.4,21.0,25.0,19.7,15.0,80,73,53,29.97,29.78,12,2,20,0.01
2013-2-4,35.0,28.7,24.0,26.0,15.1,9.0,81,57,42,30.05,29.85,13,4,23,0.01
2013-2-5,35.0,31.9,30.0,29.0,26.6,25.0,82,80,77,29.90,29.82,3,1,6,0.06
2013-2-6,39.0,34.0,29.0,28.0,23.4,17.0,83,66,51,30.32,29.90,10,3,16,0.02
2013-2-7,38.0,32.2,23.0,25.0,20.4,16.0,74,62,49,30.40,30.18,5,1,11,0.01
2013-2-8,39.0,35.1,32.0,33.0,27.0,20.0,82,72,60,30.18,29.76,18,5,28,0.02
2013-2-9,38.0,31.1,26.0,20.0,15.8,13.0,62,53,38,30.36,29.93,23,10,31,0.01
2013-2-10,44.0,32.7,18.0,21.0,16.1,10.0,80,52,33,30.42,30.15,7,2,17,0.00
2013-2-11,62.0,46.0,36.0,45.0,33.9,20.0,83,66,26,30.15,29.64,14,4,24,0.16
2013-2-12,53.0,45.0,35.0,29.0,26.2,24.0,65,48,38,29.98,29.82,15,6,24,0.01
2013-2-13,42.0,34.5,28.0,31.0,26.1,21.0,88,72,57,29.92,29.65,7,1,11,0.01
2013-2-14,49.0,39.1,30.0,31.0,26.7,22.0,83,62,46,29.98,29.75,6,1,10,0.14
2013-2-15,52.0,39.9,32.0,35.0,29.6,23.0,81,67,47,30.01,29.92,10,2,15,0.12
2013-2-16,36.0,33.6,28.0,29.0,22.8,15.0,81,65,48,29.97,29.84,10,4,17,0.09
2013-2-17,30.0,25.7,23.0,17.0,11.3,5.0,68,54,41,30.18,29.83,17,8,29,0.00
2013-2-18,41.0,29.8,17.0,16.0,9.3,4.0,58,43,29,30.33,30.07,11,3,19,0.00
2013-2-19,49.0,38.6,29.0,39.0,25.6,16.0,79,60,42,30.07,29.63,12,5,22,0.22
2013-2-20,34.0,28.9,25.0,21.0,12.7,8.0,59,50,44,30.13,29.83,16,10,29,0.12
2013-2-21,34.0,27.0,24.0,16.0,12.3,9.0,62,54,46,30.30,30.09,14,5,19,0.00
2013-2-22,33.0,29.7,25.0,26.0,20.6,14.0,76,69,54,30.34,30.16,5,1,10,0.00
2013-2-23,40.0,35.2,33.0,35.0,28.7,26.0,81,77,74,30.16,29.80,3,1,8,0.02
2013-2-24,46.0,37.2,28.0,34.0,26.3,17.0,83,66,47,30.10,29.78,16,5,23,0.01
2013-2-25,47.0,36.1,27.0,25.0,20.7,17.0,67,54,38,30.19,30.09,5,1,12,0.00
2013-2-26,40.0,36.0,29.0,35.0,27.6,20.0,83,72,57,30.17,29.64,9,2,19,0.88
2013-2-27,51.0,42.8,37.0,38.0,33.2,31.0,84,70,52,29.66,29.54,12,4,18,0.60
2013-2-28,44.0,40.2,36.0,32.0,28.4,26.0,74,63,52,29.70,29.61,9,4,16,0.01
2013-3-1,43.0,38.7,35.0,30.0,26.2,21.0,69,61,48,29.88,29.70,12,6,18,0.00
2013-3-2,35.0,32.5,29.0,23.0,19.8,18.0,63,59,51,29.87,29.80,13,7,18,0.00
2013-3-3,38.0,32.3,29.0,21.0,18.6,16.0,71,57,48,29.89,29.80,16,8,22,0.00
2013-3-4,39.0,32.3,27.0,19.0,16.2,13.0,58,51,41,30.01,29.89,18,8,24,0.00
2013-3-5,49.0,37.4,26.0,25.0,18.3,10.0,64,48,21,30.05,29.80,6,2,11,0.00
2013-3-6,41.0,36.9,33.0,31.0,29.0,25.0,83,73,54,30.00,29.69,13,5,24,0.38
2013-3-7,46.0,39.6,32.0,30.0,27.1,23.0,72,61,48,30.15,30.00,16,6,23,0.04
2013-3-8,48.0,41.5,34.0,29.0,25.8,22.0,75,54,45,30.28,30.15,19,10,31,0.00
2013-3-9,59.0,43.9,29.0,29.0,22.9,19.0,67,46,22,30.31,30.23,4,1,8,0.00
2013-3-10,64.0,57.6,38.0,29.0,25.4,21.0,57,29,23,30.26,30.15,10,5,18,0.00
2013-3-11,60.0,52.1,44.0,47.0,37.2,22.0,72,58,32,30.17,29.83,11,4,22,0.00
2013-3-12,58.0,48.3,41.0,49.0,35.8,27.0,79,62,56,29.95,29.75,13,7,22,0.58
2013-3-13,47.0,39.2,31.0,29.0,23.0,16.0,68,52,38,30.03,29.88,16,7,27,0.02
2013-3-14,41.0,35.0,32.0,19.0,16.5,15.0,56,47,35,30.06,30.02,19,8,34,0.00
2013-3-15,55.0,42.9,29.0,33.0,24.2,15.0,60,48,37,30.06,29.75,11,4,20,0.00
2013-3-16,47.0,40.0,35.0,34.0,31.2,29.0,81,72,54,29.91,29.66,9,2,15,0.13
2013-3-17,41.0,37.1,34.0,31.0,25.6,21.0,81,64,48,30.23,29.90,11,3,18,0.01
2013-3-18,37.0,34.5,33.0,29.0,24.0,18.0,81,66,50,30.27,29.87,7,2,12,0.00
2013-3-19,54.0,41.0,33.0,37.0,27.0,13.0,84,63,23,29.87,29.70,17,5,27,0.31
2013-3-20,49.0,39.7,31.0,25.0,17.4,14.0,65,41,25,29.95,29.74,13,7,26,0.03
2013-3-21,36.0,30.6,26.0,23.0,12.8,7.0,64,48,35,29.85,29.76,15,7,25,0.00
2013-3-22,41.0,33.6,26.0,20.0,16.3,11.0,56,49,39,29.98,29.83,15,7,21,0.00
2013-3-23,50.0,37.3,25.0,25.0,20.0,15.0,68,51,32,30.00,29.89,14,4,19,0.00
2013-3-24,44.0,35.8,28.0,29.0,21.6,17.0,78,57,41,29.98,29.63,6,1,12,0.00
2013-3-25,36.0,34.6,33.0,31.0,29.4,28.0,82,81,78,29.67,29.51,3,1,6,0.46
2013-3-26,48.0,38.7,30.0,33.0,28.2,25.0,83,68,47,29.95,29.67,12,4,19,0.05
2013-3-27,48.0,42.6,37.0,33.0,27.8,25.0,71,56,45,30.10,30.00,17,8,24,0.04
2013-3-28,47.0,42.1,36.0,30.0,28.4,27.0,69,59,47,30.20,30.05,17,6,28,0.00
2013-3-29,55.0,48.3,39.0,33.0,29.3,27.0,64,49,36,30.23,30.11,11,4,16,0.00
2013-3-30,59.0,44.8,29.0,33.0,25.3,20.0,77,50,24,30.21,30.06,6,1,14,0.00
2013-3-31,48.0,45.9,42.0,42.0,39.0,31.0,83,77,54,29.95,29.72,5,1,10,0.19
2013-4-1,57.0,46.1,35.0,44.0,32.6,16.0,84,61,38,29.96,29.72,17,6,25,0.01
2013-4-2,44.0,36.6,28.0,20.0,16.5,13.0,59,44,29,30.15,29.96,17,5,23,0.00
2013-4-3,47.0,36.1,26.0,21.0,15.7,11.0,62,44,26,30.36,30.14,19,5,26,0.00
2013-4-4,49.0,37.3,24.0,18.0,14.1,10.0,61,40,24,30.38,30.03,6,2,15,0.00
2013-4-5,63.0,48.5,35.0,32.0,25.3,16.0,69,43,26,30.04,29.81,16,5,25,0.00
2013-4-6,55.0,44.4,31.0,26.0,20.9,16.0,63,41,22,30.30,30.04,13,3,18,0.00
2013-4-7,70.0,55.9,42.0,44.0,33.8,20.0,55,44,34,30.19,29.91,13,6,19,0.00
2013-4-8,79.0,67.7,54.0,50.0,45.1,41.0,66,45,31,30.05,29.90,9,2,16,0.00
2013-4-9,84.0,72.4,58.0,56.0,50.8,44.0,61,48,36,30.07,29.89,9,3,13,0.00
2013-4-10,88.0,76.1,63.0,60.0,54.3,49.0,61,48,32,29.94,29.75,11,4,18,0.00
2013-4-11,83.0,70.6,59.0,60.0,55.2,51.0,75,60,40,29.89,29.71,14,3,23,0.00
2013-4-12,60.0,54.6,50.0,52.0,48.4,37.0,84,79,60,29.78,29.59,11,5,21,0.67
2013-4-13,66.0,54.9,46.0,40.0,34.9,31.0,64,48,29,29.96,29.78,11,5,16,0.12
2013-4-14,66.0,53.3,40.0,39.0,34.0,31.0,72,50,31,30.13,29.96,6,2,16,0.00
2013-4-15,65.0,59.7,54.0,50.0,44.6,37.0,62,57,49,30.24,30.09,8,3,19,0.00
2013-4-16,75.0,64.6,56.0,59.0,52.5,44.0,75,65,55,30.25,30.06,11,5,17,0.00
2013-4-17,70.0,63.6,58.0,60.0,54.2,50.0,85,72,57,30.22,30.11,8,2,13,0.01
2013-4-18,75.0,66.0,61.0,62.0,56.0,51.0,80,70,58,30.20,29.94,8,3,18,0.01
2013-4-19,75.0,65.9,53.0,63.0,55.8,40.0,83,70,58,29.94,29.56,20,7,35,0.94
2013-4-20,56.0,49.3,40.0,40.0,30.4,25.0,62,48,37,30.34,29.78,14,7,21,0.89
2013-4-21,54.0,43.8,33.0,27.0,24.0,21.0,63,46,31,30.58,30.34,7,2,13,0.01
2013-4-22,59.0,47.3,33.0,34.0,30.1,26.0,77,53,35,30.55,30.36,6,2,14,0.00
2013-4-23,61.0,47.9,35.0,43.0,35.7,28.0,77,63,47,30.39,30.07,4,1,8,0.00
2013-4-24,76.0,57.5,40.0,57.0,46.5,34.0,81,68,45,30.08,29.71,15,4,27,0.08
2013-4-25,63.0,51.7,42.0,40.0,32.3,28.0,65,49,26,30.28,30.03,13,3,24,0.08
2013-4-26,65.0,52.5,42.0,36.0,32.6,30.0,69,48,28,30.45,30.28,7,2,11,0.00
2013-4-27,70.0,55.9,37.0,45.0,37.1,29.0,76,52,31,30.40,30.24,6,2,13,0.00
2013-4-28,62.0,55.2,51.0,48.0,40.9,-99.9,83,62,43,30.25,30.10,12,3,18,0.21
2013-4-29,62.0,56.5,53.0,56.0,50.4,46.0,83,80,70,30.11,30.02,5,1,10,0.22
2013-4-30,62.0,58.3,55.0,54.0,51.8,50.0,84,79,72,30.28,30.08,3,1,9,0.01
2013-5-1,72.0,60.8,52.0,51.0,39.6,30.0,82,50,24,30.39,30.27,5,1,10,0.00
2013-5-2,72.0,57.9,41.0,47.0,42.0,36.0,82,59,33,30.42,30.29,6,1,12,0.00
2013-5-3,70.0,58.3,45.0,48.0,42.8,39.0,78,58,35,30.37,30.25,5,2,13,0.00
2013-5-4,70.0,56.6,40.0,46.0,40.7,34.0,82,58,35,30.32,30.14,7,2,19,0.00
2013-5-5,67.0,55.0,44.0,43.0,39.4,36.0,75,57,36,30.23,30.11,6,2,11,0.00
2013-5-6,63.0,54.7,41.0,54.0,46.2,35.0,81,73,67,30.16,30.05,6,2,11,0.05
2013-5-7,63.0,60.8,58.0,58.0,54.9,52.0,84,81,76,30.06,29.94,7,2,12,0.87
2013-5-8,70.0,61.4,56.0,58.0,53.5,50.0,85,76,56,29.99,29.91,5,1,11,0.54
2013-5-9,74.0,61.8,53.0,59.0,53.5,48.0,85,75,57,29.99,29.90,5,1,9,0.01
2013-5-10,83.0,64.2,53.0,62.0,53.6,-99.9,84,73,43,30.00,29.85,11,2,19,0.60
2013-5-11,73.0,65.5,62.0,63.0,58.0,51.0,85,77,59,29.85,29.71,7,2,13,0.61
2013-5-12,63.0,55.2,44.0,50.0,35.3,-99.9,72,50,34,30.01,29.76,13,6,23,0.11
2013-5-13,56.0,48.1,40.0,32.0,29.1,24.0,65,49,31,30.15,30.00,11,4,20,0.03
2013-5-14,62.0,49.2,32.0,42.0,33.1,25.0,78,56,33,30.21,30.01,5,1,10,0.01
2013-5-15,84.0,63.4,49.0,66.0,51.2,42.0,80,66,50,30.01,29.65,9,2,17,0.00
2013-5-16,80.0,67.2,66.0,64.0,36.9,-99.9,80,62,42,29.93,29.73,8,2,15,0.06
2013-5-17,82.0,68.7,55.0,59.0,47.1,-99.9,83,59,37,30.12,29.93,4,1,10,0.03
2013-5-18,67.0,63.3,59.0,57.0,53.2,49.0,80,70,55,30.21,30.11,8,2,14,0.00
2013-5-19,71.0,64.6,60.0,62.0,57.7,53.0,83,79,73,30.19,30.07,5,1,9,0.00
2013-5-20,83.0,72.9,64.0,67.0,63.3,59.0,85,73,56,30.10,29.96,7,1,11,0.00
2013-5-21,88.0,76.6,65.0,70.0,65.9,59.0,84,71,53,29.98,29.84,6,2,16,0.00
2013-5-22,90.0,76.7,68.0,69.0,64.9,61.0,85,69,43,29.93,29.79,9,2,16,0.18
2013-5-23,78.0,69.8,64.0,66.0,62.6,58.0,84,78,64,29.88,29.71,8,3,14,0.25
2013-5-24,65.0,55.1,47.0,60.0,43.7,32.0,85,66,50,30.17,29.74,17,9,30,0.08
2013-5-25,65.0,53.4,42.0,40.0,35.0,32.0,69,51,35,30.19,30.08,18,6,25,0.00
2013-5-26,70.0,57.8,43.0,42.0,36.9,32.0,67,47,29,30.21,30.12,14,3,19,0.00
2013-5-27,68.0,57.6,42.0,49.0,42.5,35.0,78,58,39,30.28,30.16,5,1,10,0.00
2013-5-28,78.0,64.6,57.0,64.0,55.5,49.0,83,73,58,30.19,30.03,6,1,9,0.05
2013-5-29,89.0,74.5,60.0,68.0,61.6,56.0,87,67,43,30.10,30.04,8,3,16,0.01
2013-5-30,91.0,79.2,66.0,68.0,64.3,60.0,82,62,41,30.18,30.07,6,1,10,0.01
2013-5-31,90.0,79.7,68.0,66.0,62.7,59.0,77,58,36,30.14,30.00,9,3,16,0.00
2013-6-1,90.0,80.9,70.0,70.0,64.9,61.0,75,59,46,30.03,29.88,11,3,18,0.00
2013-6-2,83.0,76.5,72.0,69.0,63.9,-99.9,81,68,59,29.88,29.81,8,4,13,0.01
2013-6-3,78.0,71.0,63.0,66.0,60.6,50.0,85,71,51,29.97,29.84,8,3,15,0.24
2013-6-4,76.0,64.2,48.0,50.0,46.0,38.0,70,53,36,30.12,29.97,10,2,15,0.01
2013-6-5,78.0,66.7,51.0,57.0,52.1,45.0,82,61,41,30.17,30.01,10,2,16,0.00
2013-6-6,70.0,65.5,61.0,61.0,55.3,46.0,85,71,51,30.03,29.85,6,2,13,0.70
2013-6-7,68.0,65.9,63.0,63.0,60.8,58.0,86,84,81,29.85,29.65,7,3,12,0.21
2013-6-8,78.0,69.6,64.0,62.0,58.4,55.0,83,68,52,30.10,29.73,6,2,12,0.06
2013-6-9,81.0,71.0,60.0,66.0,60.6,54.0,83,71,54,30.19,30.08,5,1,11,0.05
2013-6-10,79.0,71.9,69.0,71.0,66.1,61.0,86,82,71,30.10,29.76,8,2,16,1.08
2013-6-11,80.0,72.4,65.0,66.0,63.4,61.0,86,74,59,29.85,29.77,8,3,16,0.54
2013-6-12,88.0,77.2,67.0,68.0,64.3,60.0,79,66,45,29.87,29.77,9,1,14,0.01
2013-6-13,81.0,73.0,68.0,67.0,63.1,54.0,84,72,60,29.80,29.48,16,4,27,0.54
2013-6-14,78.0,69.5,62.0,56.0,53.5,51.0,71,58,41,29.98,29.62,13,6,19,0.09
2013-6-15,81.0,70.1,58.0,60.0,53.4,48.0,81,58,33,30.09,29.97,8,2,14,0.00
2013-6-16,80.0,71.1,62.0,67.0,59.8,50.0,78,68,60,30.02,29.87,8,2,15,0.02
2013-6-17,86.0,76.7,68.0,69.0,63.8,60.0,76,65,51,29.95,29.86,5,1,14,0.02
2013-6-18,78.0,72.5,67.0,68.0,64.4,61.0,83,76,67,29.91,29.79,5,1,9,0.01
2013-6-19,79.0,70.0,61.0,60.0,55.8,51.0,84,63,40,30.13,29.90,7,2,21,0.55
2013-6-20,80.0,67.1,57.0,64.0,58.2,52.0,83,74,53,30.24,30.13,9,2,16,0.00
2013-6-22,86.0,82.7,76.0,69.0,65.4,62.0,68,56,48,30.23,30.09,6,3,13,0.00
2013-6-23,87.0,77.6,67.0,72.0,66.1,62.0,84,69,50,30.18,30.05,5,2,9,0.00
2013-6-24,90.0,76.9,71.0,71.0,66.3,61.0,79,70,42,30.12,30.03,16,2,22,0.00
2013-6-25,91.0,80.4,70.0,74.0,66.9,61.0,82,65,46,30.03,29.87,7,2,14,0.00
2013-6-26,88.0,76.1,67.0,73.0,65.6,61.0,81,70,54,29.94,29.81,8,2,13,0.00
2013-6-27,79.0,72.5,68.0,72.0,66.2,63.0,85,80,72,29.83,29.61,4,1,9,0.44
2013-6-28,84.0,75.0,70.0,70.0,64.9,62.0,80,72,55,29.61,29.48,6,2,22,0.16
2013-6-29,86.0,77.9,68.0,65.0,63.1,60.0,84,62,43,29.70,29.58,6,2,16,0.15
2013-6-30,87.0,74.5,65.0,72.0,66.4,60.0,86,77,56,29.84,29.69,9,1,13,0.24
2013-7-1,83.0,75.4,71.0,71.0,67.8,66.0,86,78,62,29.96,29.83,8,2,17,0.30
2013-7-2,85.0,77.7,74.0,72.0,69.0,67.0,83,75,61,30.13,29.96,11,4,17,0.02
2013-7-3,84.0,78.4,74.0,73.0,69.6,67.0,80,75,64,30.21,30.13,5,3,11,0.02
2013-7-4,89.0,81.9,73.0,73.0,70.1,68.0,83,69,56,30.23,30.14,10,4,20,0.02
2013-7-5,89.0,81.3,75.0,73.0,70.0,68.0,80,69,55,30.20,30.09,9,4,17,0.02
2013-7-6,92.0,82.0,73.0,73.0,69.7,66.0,82,68,48,30.18,30.04,8,3,14,0.00
2013-7-7,90.0,77.6,70.0,72.0,67.7,65.0,85,73,54,30.09,30.00,15,2,20,0.91
2013-7-8,86.0,74.1,69.0,70.0,66.6,65.0,86,78,54,30.11,30.03,3,1,9,0.04
2013-7-9,85.0,77.0,72.0,72.0,68.3,65.0,82,75,64,30.11,29.98,6,2,11,0.19
2013-7-10,85.0,77.3,74.0,72.0,66.0,-99.9,80,71,62,30.00,29.85,9,2,17,0.04
2013-7-11,85.0,76.6,71.0,68.0,65.1,63.0,80,68,54,29.93,29.84,7,2,12,0.01
2013-7-12,77.0,71.1,67.0,66.0,63.2,62.0,84,76,66,30.06,29.92,8,2,13,0.15
2013-7-13,84.0,76.5,69.0,70.0,67.3,64.0,85,74,61,30.26,30.05,6,2,10,0.08
2013-7-14,89.0,80.8,73.0,72.0,69.6,67.0,84,70,52,30.34,30.26,8,2,12,0.02
2013-7-15,93.0,80.6,71.0,73.0,69.2,66.0,85,70,46,30.31,30.19,5,1,11,0.00
2013-7-16,93.0,83.4,76.0,74.0,69.7,66.0,80,65,41,30.27,30.18,7,2,12,0.00
2013-7-17,95.0,82.2,74.0,73.0,69.4,67.0,81,67,42,30.24,30.09,7,1,11,0.00
2013-7-18,97.0,84.7,75.0,76.0,72.1,69.0,83,67,48,30.13,30.00,3,1,9,0.00
2013-7-19,96.0,82.6,72.0,77.0,72.2,67.0,84,72,47,30.01,29.85,7,2,15,1.68
2013-7-20,87.0,79.4,72.0,76.0,67.5,-99.9,84,69,56,29.89,29.80,6,2,13,0.19
2013-7-21,86.0,77.5,70.0,72.0,68.0,63.0,85,73,58,29.95,29.88,6,1,11,0.11
2013-7-22,86.0,75.0,70.0,73.0,68.6,65.0,86,81,60,29.95,29.76,4,1,9,0.42
2013-7-23,86.0,77.2,72.0,71.0,68.1,65.0,86,74,53,29.77,29.66,6,1,15,0.01
2013-7-24,79.0,74.3,66.0,65.0,60.7,55.0,80,63,47,29.94,29.69,11,4,16,0.01
2013-7-25,78.0,66.7,55.0,59.0,53.8,49.0,80,64,48,30.04,29.94,8,2,13,0.00
2013-7-26,83.0,69.6,57.0,60.0,56.2,52.0,84,65,37,30.10,30.01,4,0,7,0.00
2013-7-27,80.0,72.8,61.0,71.0,64.5,55.0,83,75,65,30.04,29.90,6,2,10,0.29
2013-7-28,85.0,75.2,68.0,68.0,65.0,61.0,82,72,48,29.98,29.87,7,2,12,0.14
2013-7-29,79.0,68.8,58.0,62.0,55.6,51.0,82,64,43,30.16,29.99,5,1,11,0.00
2013-7-30,82.0,70.4,58.0,62.0,57.1,52.0,82,64,44,30.23,30.13,6,0,12,0.00
2013-7-31,80.0,71.5,62.0,67.0,61.7,56.0,82,72,61,30.15,29.99,8,2,14,0.03
2013-8-1,83.0,74.3,69.0,70.0,65.9,63.0,85,76,59,29.99,29.81,7,2,10,0.17
2013-8-2,83.0,71.7,64.0,65.0,62.2,59.0,85,74,47,29.96,29.86,6,1,11,0.01
2013-8-3,77.0,71.3,67.0,66.0,63.9,61.0,83,78,68,29.96,29.91,7,2,10,0.05
2013-8-4,79.0,69.0,59.0,61.0,55.3,50.0,85,64,41,30.04,29.93,12,3,19,0.01
2013-8-5,80.0,68.2,56.0,57.0,52.9,49.0,80,60,38,30.11,30.00,4,0,10,0.01
2013-8-6,79.0,67.6,62.0,67.0,59.6,55.0,83,76,60,30.06,29.99,6,1,9,0.09
2013-8-7,83.0,74.2,69.0,71.0,66.7,63.0,84,78,64,30.06,29.97,7,2,12,0.11
2013-8-8,83.0,74.7,68.0,72.0,68.3,63.0,86,81,69,30.02,29.96,6,2,14,0.13
2013-8-9,85.0,77.4,74.0,74.0,70.6,68.0,85,80,68,29.97,29.87,6,2,12,0.21
2013-8-10,83.0,75.9,68.0,68.0,64.1,61.0,85,68,51,30.08,29.96,4,1,8,0.01
2013-8-11,86.0,74.7,65.0,70.0,64.3,60.0,84,71,52,30.11,29.98,6,2,9,0.04
2013-8-12,87.0,74.9,67.0,69.0,65.2,62.0,86,73,48,30.03,29.91,3,0,8,0.04
2013-8-13,84.0,73.9,69.0,69.0,61.6,-99.9,85,69,55,29.91,29.74,11,3,18,0.90
2013-8-21,88.0,74.3,61.0,72.0,64.5,56.0,85,72,56,30.19,30.06,6,1,13,0.01
2013-8-22,87.0,76.8,69.0,70.0,64.8,60.0,83,67,51,30.09,29.93,5,1,11,0.00
2013-8-23,78.0,71.2,66.0,67.0,63.6,60.0,83,77,66,30.13,29.95,2,0,5,0.07
2013-8-24,83.0,69.6,57.0,61.0,56.2,52.0,86,65,37,30.33,30.13,6,1,9,0.01
2013-8-25,82.0,68.6,55.0,64.0,54.2,-99.9,83,64,44,30.40,30.24,6,1,11,0.01
2013-8-26,87.0,75.2,62.0,65.0,61.3,56.0,81,64,47,30.26,29.99,6,2,12,0.00
2013-8-27,91.0,79.3,73.0,70.0,65.8,63.0,73,64,49,29.99,29.89,7,2,13,0.00
2013-9-1,90.0,76.5,69.0,71.0,64.8,-99.9,84,71,51,29.85,29.76,5,1,10,0.54
2013-9-2,90.0,78.4,70.0,72.0,68.1,65.0,86,72,52,29.81,29.71,6,1,13,0.71
2013-9-3,81.0,73.5,63.0,66.0,59.4,53.0,78,62,43,29.98,29.73,11,3,18,0.05
2013-9-4,82.0,68.7,56.0,57.0,53.2,49.0,80,60,38,30.10,29.97,4,1,9,0.00
2013-9-5,80.0,69.2,61.0,62.0,53.6,45.0,78,59,36,30.13,30.02,9,2,16,0.00
2013-9-6,75.0,62.7,51.0,49.0,46.1,43.0,77,57,37,30.27,30.13,5,1,9,0.00
2013-9-7,82.0,64.3,48.0,57.0,50.9,42.0,82,64,40,30.14,29.93,4,1,11,0.00
2013-9-8,85.0,71.4,64.0,65.0,57.1,-99.9,82,64,52,30.05,29.89,9,2,14,0.02
2013-9-9,76.0,67.3,59.0,63.0,54.2,47.0,75,63,49,30.21,30.06,5,1,10,0.01
2013-9-11,94.0,82.2,73.0,74.0,70.1,67.0,83,69,50,30.14,30.00,7,2,12,0.02
2013-9-12,91.0,77.1,70.0,72.0,66.7,60.0,83,71,52,30.00,29.74,7,2,13,0.28
2013-9-13,74.0,66.3,56.0,63.0,53.5,44.0,80,64,45,29.97,29.73,13,5,23,0.01
2013-9-14,66.0,56.2,45.0,46.0,42.7,39.0,81,62,44,30.15,29.96,11,2,15,0.00
2013-9-15,77.0,57.2,44.0,55.0,44.0,-99.9,83,67,43,30.22,30.05,7,1,12,0.00
2013-9-16,73.0,63.5,57.0,56.0,53.2,49.0,83,70,46,30.24,30.02,7,1,13,0.17
2013-9-17,69.0,56.6,44.0,50.0,41.4,37.0,78,59,34,30.42,30.25,4,1,9,0.01
2013-9-18,49.0,43.6,41.0,43.0,37.5,36.0,82,79,71,30.33,30.30,1,0,3,0.00
2013-9-19,77.0,61.7,47.0,58.0,50.4,41.0,82,68,49,30.18,30.05,4,0,11,0.00
2013-9-20,81.0,67.6,52.0,62.0,56.4,47.0,85,69,50,30.07,29.92,5,1,11,0.00
2013-9-21,70.0,65.6,61.0,62.0,58.8,56.0,85,79,72,29.93,29.68,12,4,18,1.00
2013-10-2,85.0,70.5,58.0,62.0,56.9,52.0,81,64,42,30.08,29.99,7,1,10,0.00
2013-10-3,84.0,71.4,60.0,64.0,59.6,54.0,81,67,49,30.13,30.03,3,0,9,0.00
2013-10-4,87.0,73.6,62.0,65.0,61.8,56.0,84,68,47,30.10,30.00,4,1,10,0.00
2013-10-5,88.0,76.7,66.0,66.0,63.1,60.0,81,64,46,30.09,29.98,7,1,13,0.00
2013-10-6,89.0,76.0,63.0,66.0,62.0,57.0,84,64,41,30.01,29.87,11,3,19,0.00
2013-10-7,75.0,66.0,53.0,65.0,55.9,42.0,84,71,49,30.06,29.72,9,3,18,0.96
2013-10-8,69.0,58.0,47.0,48.0,43.4,40.0,78,60,39,30.29,30.06,9,1,17,0.03
2013-10-9,63.0,54.6,47.0,48.0,43.1,39.0,80,66,42,30.35,30.26,5,1,9,0.00
2013-10-10,56.0,54.5,53.0,50.0,46.6,43.0,84,75,65,30.25,30.04,9,5,16,2.59
2013-10-18,66.0,56.7,46.0,45.0,41.6,39.0,76,58,38,30.00,29.85,7,2,17,0.10
2013-10-19,61.0,50.9,40.0,52.0,43.0,35.0,83,75,61,29.98,29.76,7,2,16,0.08
2013-10-20,63.0,50.4,40.0,40.0,34.4,-99.9,76,57,41,30.07,29.87,9,2,16,0.03
2013-10-21,68.0,51.8,36.0,44.0,38.2,31.0,82,62,37,30.12,29.91,9,2,15,0.00
2013-10-22,60.0,52.3,42.0,46.0,39.0,28.0,77,61,42,29.91,29.81,9,2,18,0.00
2013-10-23,52.0,43.6,35.0,37.0,32.6,29.0,80,66,48,29.88,29.67,9,2,15,0.00
2013-10-24,50.0,42.6,36.0,33.0,29.9,26.0,74,61,44,30.11,29.88,10,2,17,0.00
2013-10-25,52.0,44.2,36.0,33.0,29.6,26.0,71,57,45,30.28,30.11,13,4,22,0.00
2013-10-26,55.0,43.5,31.0,32.0,27.5,24.0,75,56,34,30.27,29.90,11,3,20,0.00
2013-10-27,58.0,47.9,38.0,36.0,29.3,-99.9,70,51,36,30.12,29.93,9,2,14,0.00
2013-10-28,61.0,43.6,31.0,40.0,30.6,-99.9,80,65,40,30.26,30.12,2,0,6,0.00
2013-10-29,63.0,48.0,37.0,41.0,36.1,30.0,77,65,42,30.39,30.26,4,1,6,0.00
2013-10-30,69.0,54.9,45.0,51.0,44.9,37.0,81,70,51,30.29,30.12,3,0,5,0.00